createdAt,value
2018-05-09T00:01:30.075Z,15.79
2018-05-09T00:04:02.623Z,15.76
2018-05-09T00:06:35.193Z,15.73
2018-05-09T00:09:07.744Z,15.72
2018-05-09T00:11:40.307Z,15.67
2018-05-09T00:14:12.844Z,15.67
2018-05-09T00:16:45.398Z,15.65
2018-05-09T00:19:17.919Z,15.61
2018-05-09T00:21:50.488Z,15.56
2018-05-09T00:24:23.024Z,15.53
2018-05-09T00:26:55.598Z,15.52
2018-05-09T00:29:28.193Z,15.48
2018-05-09T00:32:00.750Z,15.46
2018-05-09T00:34:33.314Z,15.43
2018-05-09T00:37:05.881Z,15.39
2018-05-09T00:39:38.424Z,15.37
2018-05-09T00:42:10.986Z,15.34
2018-05-09T00:44:43.564Z,15.30
2018-05-09T00:47:16.107Z,15.30
2018-05-09T00:49:48.696Z,15.28
2018-05-09T00:52:21.278Z,15.26
2018-05-09T00:54:53.889Z,15.26
2018-05-09T00:57:26.440Z,15.20
2018-05-09T00:59:59.022Z,15.16
2018-05-09T01:02:31.585Z,15.09
2018-05-09T01:05:04.145Z,15.04
2018-05-09T01:07:36.681Z,15.02
2018-05-09T01:10:09.264Z,15.03
2018-05-09T01:12:41.813Z,14.99
2018-05-09T01:15:14.363Z,14.99
2018-05-09T01:17:46.891Z,14.98
2018-05-09T01:20:19.432Z,14.98
2018-05-09T01:22:51.965Z,14.97
2018-05-09T01:25:24.616Z,14.93
2018-05-09T01:27:57.161Z,14.89
2018-05-09T01:30:29.713Z,14.83
2018-05-09T01:33:02.247Z,14.81
2018-05-09T01:35:34.811Z,14.79
2018-05-09T01:38:07.377Z,14.80
2018-05-09T01:40:39.952Z,14.82
2018-05-09T01:43:12.507Z,14.80
2018-05-09T01:45:45.055Z,14.80
2018-05-09T01:48:17.596Z,14.78
2018-05-09T01:50:50.143Z,14.80
2018-05-09T01:53:22.689Z,14.76
2018-05-09T01:55:55.240Z,14.75
2018-05-09T01:58:27.793Z,14.74
2018-05-09T02:01:00.345Z,14.71
2018-05-09T02:03:32.868Z,14.67
2018-05-09T02:06:05.532Z,14.63
2018-05-09T02:08:37.986Z,14.61
2018-05-09T02:11:10.551Z,14.56
2018-05-09T02:13:43.088Z,14.49
2018-05-09T02:16:15.654Z,14.45
2018-05-09T02:18:48.195Z,14.39
2018-05-09T02:21:20.765Z,14.31
2018-05-09T02:23:53.305Z,14.25
2018-05-09T02:26:25.948Z,14.22
2018-05-09T02:28:58.483Z,14.14
2018-05-09T02:31:31.072Z,14.11
2018-05-09T02:34:03.614Z,14.05
2018-05-09T02:36:36.190Z,14.04
2018-05-09T02:39:08.768Z,14.07
2018-05-09T02:41:41.314Z,14.02
2018-05-09T02:44:13.854Z,13.94
2018-05-09T02:46:46.410Z,13.96
2018-05-09T02:49:18.948Z,13.96
2018-05-09T02:51:51.511Z,13.89
2018-05-09T02:54:24.060Z,13.81
2018-05-09T02:56:56.623Z,13.67
2018-05-09T02:59:29.161Z,13.65
2018-05-09T03:02:01.726Z,13.69
2018-05-09T03:04:34.272Z,13.69
2018-05-09T03:07:06.850Z,13.64
2018-05-09T03:09:39.376Z,13.54
2018-05-09T03:12:11.943Z,13.50
2018-05-09T03:14:44.480Z,13.54
2018-05-09T03:17:17.033Z,13.58
2018-05-09T03:19:49.557Z,13.53
2018-05-09T03:22:22.126Z,13.51
2018-05-09T03:24:54.706Z,13.52
2018-05-09T03:27:27.248Z,13.52
2018-05-09T03:29:59.850Z,13.43
2018-05-09T03:32:32.384Z,13.48
2018-05-09T03:35:04.921Z,13.59
2018-05-09T03:37:37.482Z,13.55
2018-05-09T03:40:10.006Z,13.62
2018-05-09T03:42:42.642Z,13.65
2018-05-09T03:45:15.171Z,13.71
2018-05-09T03:47:47.735Z,13.67
2018-05-09T03:50:20.271Z,13.69
2018-05-09T03:52:52.824Z,13.71
2018-05-09T03:55:25.369Z,13.76
2018-05-09T03:57:57.916Z,13.73
2018-05-09T04:00:30.524Z,13.76
2018-05-09T04:03:14.987Z,13.75
2018-05-09T04:05:59.407Z,13.69
2018-05-09T04:08:43.935Z,13.65
2018-05-09T04:11:16.516Z,13.82
2018-05-09T04:13:49.046Z,13.91
2018-05-09T04:16:21.595Z,14.03
2018-05-09T04:18:54.824Z,14.08
2018-05-09T04:21:27.372Z,14.09
2018-05-09T04:23:59.905Z,14.05
2018-05-09T04:26:32.460Z,14.09
2018-05-09T04:29:05.027Z,14.16
2018-05-09T04:31:37.572Z,14.25
2018-05-09T04:34:10.115Z,14.34
2018-05-09T04:36:42.688Z,14.61
2018-05-09T04:39:15.228Z,15.26
2018-05-09T04:41:47.795Z,16.02
2018-05-09T04:44:20.311Z,16.40
2018-05-09T04:46:52.887Z,16.41
2018-05-09T04:49:25.420Z,16.22
2018-05-09T04:51:58.012Z,16.19
2018-05-09T04:54:30.570Z,16.19
2018-05-09T04:57:03.127Z,16.36
2018-05-09T04:59:35.688Z,16.84
2018-05-09T05:02:08.241Z,17.15
2018-05-09T05:04:40.782Z,17.28
2018-05-09T05:07:13.365Z,17.39
2018-05-09T05:09:45.909Z,17.44
2018-05-09T05:12:18.455Z,17.45
2018-05-09T05:14:51.009Z,17.42
2018-05-09T05:17:23.565Z,17.39
2018-05-09T05:19:56.129Z,17.46
2018-05-09T05:22:28.717Z,17.60
2018-05-09T05:25:01.277Z,17.79
2018-05-09T05:27:33.849Z,17.87
2018-05-09T05:30:06.400Z,17.84
2018-05-09T05:32:39.013Z,17.99
2018-05-09T05:35:11.507Z,18.19
2018-05-09T05:37:44.078Z,18.20
2018-05-09T05:40:16.618Z,18.31
2018-05-09T05:42:49.177Z,18.60
2018-05-09T05:45:21.729Z,18.67
2018-05-09T05:47:54.362Z,18.78
2018-05-09T05:50:26.915Z,18.93
2018-05-09T05:52:59.466Z,19.03
2018-05-09T05:55:32.002Z,19.16
2018-05-09T05:58:04.577Z,19.32
2018-05-09T06:00:37.150Z,19.46
2018-05-09T06:03:09.718Z,19.69
2018-05-09T06:05:42.256Z,19.74
2018-05-09T06:08:14.832Z,19.93
2018-05-09T06:10:47.385Z,20.11
2018-05-09T06:13:19.959Z,20.16
2018-05-09T06:15:52.513Z,20.29
2018-05-09T06:18:25.090Z,20.40
2018-05-09T06:20:57.641Z,20.44
2018-05-09T06:23:30.201Z,20.29
2018-05-09T06:26:02.757Z,20.56
2018-05-09T06:28:35.333Z,20.71
2018-05-09T06:31:07.878Z,20.86
2018-05-09T06:33:40.442Z,20.63
2018-05-09T06:36:13.001Z,20.87
2018-05-09T06:38:45.618Z,21.14
2018-05-09T06:41:18.167Z,21.45
2018-05-09T06:43:50.761Z,21.67
2018-05-09T06:46:23.293Z,21.71
2018-05-09T06:48:55.879Z,21.88
2018-05-09T06:51:28.426Z,22.04
2018-05-09T06:54:00.990Z,22.18
2018-05-09T06:56:33.568Z,22.13
2018-05-09T06:59:06.152Z,22.13
2018-05-09T07:01:38.718Z,22.30
2018-05-09T07:04:11.287Z,22.40
2018-05-09T07:06:44.170Z,22.52
2018-05-09T07:09:16.440Z,22.76
2018-05-09T07:11:48.992Z,22.65
2018-05-09T07:14:21.558Z,22.65
2018-05-09T07:16:54.107Z,22.97
2018-05-09T07:19:26.670Z,23.09
2018-05-09T07:21:59.220Z,23.11
2018-05-09T07:24:31.830Z,23.23
2018-05-09T07:27:04.389Z,23.23
2018-05-09T07:29:36.973Z,23.30
2018-05-09T07:32:09.543Z,23.42
2018-05-09T07:34:42.105Z,23.24
2018-05-09T07:37:14.700Z,23.45
2018-05-09T07:39:47.290Z,23.63
2018-05-09T07:42:19.876Z,23.65
2018-05-09T07:44:52.443Z,23.61
2018-05-09T07:47:25.003Z,23.69
2018-05-09T07:49:57.536Z,23.88
2018-05-09T07:52:30.094Z,24.30
2018-05-09T07:55:02.638Z,24.46
2018-05-09T07:57:35.205Z,24.47
2018-05-09T08:00:07.799Z,24.52
2018-05-09T08:02:40.374Z,24.63
2018-05-09T08:05:12.919Z,25.02
2018-05-09T08:07:45.500Z,24.87
2018-05-09T08:10:18.052Z,24.83
2018-05-09T08:12:50.729Z,24.94
2018-05-09T08:15:23.213Z,24.82
2018-05-09T08:17:55.783Z,25.04
2018-05-09T08:20:28.364Z,25.39
2018-05-09T08:23:00.956Z,25.53
2018-05-09T08:25:33.531Z,25.52
2018-05-09T08:28:06.137Z,25.55
2018-05-09T08:30:38.851Z,25.97
2018-05-09T08:33:11.798Z,25.98
2018-05-09T08:35:44.354Z,26.14
2018-05-09T08:38:17.021Z,26.38
2018-05-09T08:40:49.530Z,26.73
2018-05-09T08:43:22.192Z,26.84
2018-05-09T08:45:54.707Z,26.77
2018-05-09T08:48:27.306Z,26.75
2018-05-09T08:50:59.855Z,27.08
2018-05-09T08:53:32.426Z,26.92
2018-05-09T08:56:04.965Z,26.96
2018-05-09T08:58:37.540Z,27.18
2018-05-09T09:01:10.074Z,27.10
2018-05-09T09:03:42.662Z,26.88
2018-05-09T09:06:15.204Z,27.11
2018-05-09T09:08:47.789Z,27.56
2018-05-09T09:11:20.336Z,28.11
2018-05-09T09:13:52.913Z,27.82
2018-05-09T09:16:25.480Z,27.83
2018-05-09T09:18:58.060Z,27.96
2018-05-09T09:21:30.625Z,28.07
2018-05-09T09:24:03.221Z,27.56
2018-05-09T09:26:35.778Z,27.62
2018-05-09T09:29:08.533Z,27.64
2018-05-09T09:31:40.964Z,27.60
2018-05-09T09:34:13.550Z,27.95
2018-05-09T09:36:46.123Z,28.26
2018-05-09T09:39:18.678Z,28.33
2018-05-09T09:41:51.417Z,28.29
2018-05-09T09:44:24.163Z,28.56
2018-05-09T09:46:56.762Z,28.69
2018-05-09T09:49:29.343Z,28.45
2018-05-09T09:52:01.921Z,28.55
2018-05-09T09:54:35.476Z,28.24
2018-05-09T09:57:08.119Z,28.41
2018-05-09T09:59:40.705Z,28.53
2018-05-09T10:02:13.295Z,28.83
2018-05-09T10:04:45.885Z,28.56
2018-05-09T10:07:18.439Z,28.49
2018-05-09T10:09:53.642Z,28.72
2018-05-09T10:12:26.213Z,28.66
2018-05-09T10:14:58.809Z,28.95
2018-05-09T10:17:31.381Z,28.98
2018-05-09T10:20:03.963Z,28.81
2018-05-09T10:22:36.519Z,28.93
2018-05-09T10:25:09.122Z,28.88
2018-05-09T10:27:41.703Z,29.20
2018-05-09T10:30:14.282Z,29.52
2018-05-09T10:32:46.868Z,29.34
2018-05-09T10:35:19.450Z,29.03
2018-05-09T10:37:52.210Z,29.34
2018-05-09T10:40:24.800Z,29.51
2018-05-09T10:47:49.556Z,30.14
2018-05-09T10:50:22.075Z,29.77
2018-05-09T10:52:54.584Z,29.57
2018-05-09T10:55:27.115Z,29.59
2018-05-09T10:57:59.611Z,29.80
2018-05-09T11:00:32.872Z,29.96
2018-05-09T11:03:05.370Z,29.69
2018-05-09T11:05:37.901Z,29.88
2018-05-09T11:08:10.403Z,29.76
2018-05-09T11:10:42.927Z,28.86
2018-05-09T11:13:15.476Z,29.65
2018-05-09T11:15:48.004Z,29.60
2018-05-09T11:18:20.507Z,29.70
2018-05-09T11:20:53.033Z,30.25
2018-05-09T11:23:25.546Z,29.96
2018-05-09T11:25:58.079Z,29.88
2018-05-09T11:28:30.641Z,29.85
2018-05-09T11:31:03.644Z,29.77
2018-05-09T11:33:36.166Z,29.96
2018-05-09T11:36:08.664Z,29.66
2018-05-09T11:38:41.179Z,29.86
2018-05-09T11:41:13.688Z,30.17
2018-05-09T11:43:46.219Z,30.48
2018-05-09T11:46:18.714Z,30.41
2018-05-09T11:48:51.235Z,30.58
2018-05-09T11:51:23.730Z,29.78
2018-05-09T11:53:56.268Z,30.52
2018-05-09T11:56:28.780Z,31.51
2018-05-09T11:59:01.299Z,32.17
2018-05-09T12:01:34.828Z,32.77
2018-05-09T12:04:07.343Z,33.18
2018-05-09T12:06:39.861Z,32.66
2018-05-09T12:09:12.396Z,32.54
2018-05-09T12:11:44.892Z,32.16
2018-05-09T12:14:17.417Z,32.39
2018-05-09T12:16:49.923Z,32.80
2018-05-09T12:19:22.447Z,32.54
2018-05-09T12:21:54.986Z,32.43
2018-05-09T12:24:27.596Z,32.32
2018-05-09T12:27:00.097Z,32.45
2018-05-09T12:29:33.109Z,32.74
2018-05-09T12:32:05.617Z,32.40
2018-05-09T12:34:38.142Z,32.27
2018-05-09T12:37:10.656Z,32.46
2018-05-09T12:39:43.196Z,33.36
2018-05-09T12:42:15.701Z,33.93
2018-05-09T12:44:48.224Z,33.41
2018-05-09T12:47:20.729Z,32.98
2018-05-09T12:49:53.257Z,33.54
2018-05-09T12:52:25.746Z,33.67
2018-05-09T12:54:58.264Z,32.45
2018-05-09T12:57:30.767Z,31.05
2018-05-09T13:00:04.000Z,30.49
2018-05-09T13:02:36.497Z,30.80
2018-05-09T13:05:09.016Z,30.50
2018-05-09T13:07:41.520Z,31.26
2018-05-09T13:10:14.038Z,33.45
2018-05-09T13:12:46.536Z,33.71
2018-05-09T13:15:19.057Z,33.26
2018-05-09T13:17:51.555Z,32.39
2018-05-09T13:20:24.094Z,32.38
2018-05-09T13:22:56.590Z,31.88
2018-05-09T13:25:29.099Z,31.68
2018-05-09T13:28:01.883Z,31.46
2018-05-09T13:30:34.405Z,31.00
2018-05-09T13:33:06.909Z,31.19
2018-05-09T13:35:39.427Z,30.67
2018-05-09T13:38:11.945Z,30.80
2018-05-09T13:40:44.456Z,31.06
2018-05-09T13:43:16.959Z,31.36
2018-05-09T13:45:49.499Z,31.30
2018-05-09T13:48:21.989Z,31.16
2018-05-09T13:50:54.494Z,30.52
2018-05-09T13:53:26.987Z,30.60
2018-05-09T13:55:59.505Z,30.59
2018-05-09T13:58:31.995Z,30.83
2018-05-09T14:01:04.503Z,30.86
2018-05-09T14:03:37.026Z,30.86
2018-05-09T14:06:09.536Z,30.61
2018-05-09T14:08:42.025Z,30.38
2018-05-09T14:11:14.544Z,30.31
2018-05-09T14:13:47.048Z,30.27
2018-05-09T14:16:19.564Z,30.53
2018-05-09T14:18:52.056Z,29.69
2018-05-09T14:21:24.628Z,30.13
2018-05-09T14:23:57.146Z,30.23
2018-05-09T14:26:29.683Z,30.22
2018-05-09T14:29:02.740Z,30.32
2018-05-09T14:31:35.296Z,30.10
2018-05-09T14:34:07.771Z,29.79
2018-05-09T14:36:40.280Z,30.04
2018-05-09T14:39:12.783Z,30.04
2018-05-09T14:41:45.307Z,29.54
2018-05-09T14:44:17.832Z,29.56
2018-05-09T14:46:50.362Z,29.75
2018-05-09T14:49:22.871Z,29.85
2018-05-09T14:51:55.376Z,29.70
2018-05-09T14:54:27.878Z,29.69
2018-05-09T14:57:00.414Z,29.87
2018-05-09T14:59:32.941Z,29.93
2018-05-09T15:02:06.249Z,29.66
2018-05-09T15:04:38.743Z,29.45
2018-05-09T15:07:11.243Z,29.45
2018-05-09T15:09:43.743Z,29.09
2018-05-09T15:12:16.312Z,29.18
2018-05-09T15:14:48.843Z,29.30
2018-05-09T15:17:21.339Z,29.47
2018-05-09T15:19:53.906Z,29.67
2018-05-09T15:22:26.403Z,29.64
2018-05-09T15:24:58.920Z,29.83
2018-05-09T15:27:31.414Z,29.69
2018-05-09T15:30:03.981Z,29.49
2018-05-09T15:32:36.476Z,29.59
2018-05-09T15:35:09.317Z,29.58
2018-05-09T15:37:41.808Z,29.77
2018-05-09T15:40:14.337Z,29.72
2018-05-09T15:42:46.846Z,29.77
2018-05-09T15:45:19.366Z,29.74
2018-05-09T15:47:51.873Z,29.63
2018-05-09T15:50:24.399Z,29.39
2018-05-09T15:52:56.909Z,29.69
2018-05-09T15:55:29.427Z,29.51
2018-05-09T15:58:01.929Z,29.44
2018-05-09T16:00:34.452Z,29.39
2018-05-09T16:03:06.958Z,29.33
2018-05-09T16:05:39.481Z,29.49
2018-05-09T16:08:11.987Z,29.26
2018-05-09T16:10:44.505Z,29.28
2018-05-09T16:13:17.016Z,29.23
2018-05-09T16:15:49.541Z,29.36
2018-05-09T16:18:22.046Z,29.32
2018-05-09T16:20:54.577Z,29.29
2018-05-09T16:23:27.108Z,29.31
2018-05-09T16:25:59.632Z,29.34
2018-05-09T16:28:32.765Z,29.26
2018-05-09T16:31:05.279Z,29.27
2018-05-09T16:33:37.781Z,28.94
2018-05-09T16:36:10.313Z,29.00
2018-05-09T16:38:42.828Z,29.22
2018-05-09T16:41:15.364Z,29.13
2018-05-09T16:43:47.969Z,29.20
2018-05-09T16:46:20.503Z,28.98
2018-05-09T16:48:53.004Z,28.92
2018-05-09T16:51:25.521Z,28.83
2018-05-09T16:54:01.014Z,28.92
2018-05-09T16:56:33.564Z,28.85
2018-05-09T16:59:06.087Z,28.85
2018-05-09T17:01:38.667Z,28.72
2018-05-09T17:04:11.197Z,28.77
2018-05-09T17:06:43.770Z,28.93
2018-05-09T17:09:16.293Z,29.06
2018-05-09T17:11:48.857Z,28.95
2018-05-09T17:14:21.398Z,28.91
2018-05-09T17:16:53.967Z,28.98
2018-05-09T17:19:26.503Z,29.28
2018-05-09T17:22:16.548Z,29.44
2018-05-09T17:24:49.115Z,29.51
2018-05-09T17:27:21.656Z,29.61
2018-05-09T17:29:54.215Z,29.62
2018-05-09T17:32:26.772Z,29.78
2018-05-09T17:34:59.303Z,29.56
2018-05-09T17:37:31.861Z,29.54
2018-05-09T17:40:04.384Z,29.41
2018-05-09T17:42:37.033Z,29.28
2018-05-09T17:45:09.522Z,29.16
2018-05-09T17:47:42.064Z,28.99
2018-05-09T17:50:14.634Z,28.85
2018-05-09T17:52:47.167Z,28.72
2018-05-09T17:55:19.719Z,28.62
2018-05-09T17:57:52.280Z,28.39
2018-05-09T18:00:24.848Z,28.11
2018-05-09T18:02:57.394Z,28.00
2018-05-09T18:05:29.934Z,27.94
2018-05-09T18:08:02.475Z,27.67
2018-05-09T18:10:35.039Z,27.49
2018-05-09T18:13:07.577Z,27.35
2018-05-09T18:15:40.124Z,27.30
2018-05-09T18:18:12.648Z,27.06
2018-05-09T18:20:45.201Z,27.04
2018-05-09T18:23:17.720Z,26.94
2018-05-09T18:25:50.262Z,26.93
2018-05-09T18:28:22.775Z,26.80
2018-05-09T18:30:55.317Z,26.74
2018-05-09T18:33:27.863Z,26.65
2018-05-09T18:36:00.397Z,26.60
2018-05-09T18:38:33.688Z,26.58
2018-05-09T18:41:06.249Z,26.52
2018-05-09T18:43:38.771Z,26.44
2018-05-09T18:46:11.390Z,26.32
2018-05-09T18:48:43.870Z,26.28
2018-05-09T18:51:16.413Z,26.20
2018-05-09T18:53:48.952Z,26.12
2018-05-09T18:56:21.480Z,26.02
2018-05-09T18:58:54.021Z,25.93
2018-05-09T19:01:26.577Z,25.84
2018-05-09T19:03:59.107Z,25.68
2018-05-09T19:06:32.013Z,25.58
2018-05-09T19:09:04.564Z,25.45
2018-05-09T19:11:37.125Z,25.33
2018-05-09T19:14:09.671Z,25.18
2018-05-09T19:16:42.208Z,25.03
2018-05-09T19:19:14.757Z,24.85
2018-05-09T19:21:47.326Z,24.70
2018-05-09T19:24:19.854Z,24.60
2018-05-09T19:26:52.389Z,24.51
2018-05-09T19:29:24.926Z,24.29
2018-05-09T19:31:57.470Z,24.15
2018-05-09T19:34:30.023Z,23.96
2018-05-09T19:37:02.567Z,23.76
2018-05-09T19:39:35.120Z,23.74
2018-05-09T19:42:07.682Z,23.61
2018-05-09T19:44:40.205Z,23.57
2018-05-09T19:47:12.748Z,23.53
2018-05-09T19:49:45.350Z,23.46
2018-05-09T19:52:17.894Z,23.41
2018-05-09T19:54:50.445Z,23.37
2018-05-09T19:57:23.010Z,23.27
2018-05-09T19:59:55.570Z,23.15
2018-05-09T20:02:28.121Z,22.97
2018-05-09T20:05:00.688Z,22.85
2018-05-09T20:07:33.243Z,22.74
2018-05-09T20:10:05.782Z,22.65
2018-05-09T20:12:38.311Z,22.63
2018-05-09T20:15:10.843Z,22.57
2018-05-09T20:17:43.385Z,22.45
2018-05-09T20:20:15.968Z,22.37
2018-05-09T20:22:48.525Z,22.38
2018-05-09T20:25:21.060Z,22.32
2018-05-09T20:27:53.623Z,22.21
2018-05-09T20:30:31.810Z,22.12
2018-05-09T20:33:04.375Z,22.11
2018-05-09T20:35:36.902Z,22.09
2018-05-09T20:38:09.450Z,22.04
2018-05-09T20:40:41.985Z,21.96
2018-05-09T20:43:14.537Z,21.93
2018-05-09T20:45:47.070Z,21.92
2018-05-09T20:48:19.629Z,21.92
2018-05-09T20:50:52.157Z,21.82
2018-05-09T20:53:24.697Z,21.65
2018-05-09T20:55:57.216Z,21.57
2018-05-09T20:58:29.769Z,21.48
2018-05-09T21:01:14.032Z,21.41
2018-05-09T21:03:46.614Z,21.27
2018-05-09T21:06:19.151Z,21.20
2018-05-09T21:08:51.747Z,21.13
2018-05-09T21:11:24.287Z,21.05
2018-05-09T21:13:57.802Z,20.99
2018-05-09T21:16:30.310Z,20.89
2018-05-09T21:19:02.851Z,20.81
2018-05-09T21:21:35.389Z,20.73
2018-05-09T21:24:07.937Z,20.68
2018-05-09T21:26:40.460Z,20.63
2018-05-09T21:29:13.015Z,20.55
2018-05-09T21:31:45.551Z,20.51
2018-05-09T21:34:18.089Z,20.44
2018-05-09T21:36:50.611Z,20.40
2018-05-09T21:39:23.161Z,20.28
2018-05-09T21:41:55.689Z,20.28
2018-05-09T21:44:28.256Z,20.25
2018-05-09T21:47:00.791Z,20.22
2018-05-09T21:49:33.346Z,20.17
2018-05-09T21:52:05.875Z,20.20
2018-05-09T21:54:38.423Z,20.20
2018-05-09T21:57:10.953Z,20.13
2018-05-09T21:59:43.501Z,20.06
2018-05-09T22:02:16.032Z,20.06
2018-05-09T22:04:48.574Z,19.99
2018-05-09T22:07:21.105Z,19.92
2018-05-09T22:09:53.665Z,19.88
2018-05-09T22:12:26.189Z,19.86
2018-05-09T22:14:58.725Z,19.86
2018-05-09T22:17:33.785Z,19.86
2018-05-09T22:20:06.341Z,19.80
2018-05-09T22:22:38.894Z,19.78
2018-05-09T22:25:11.414Z,19.72
2018-05-09T22:27:43.954Z,19.74
2018-05-09T22:30:16.501Z,19.70
2018-05-09T22:32:49.053Z,19.68
2018-05-09T22:35:21.573Z,19.65
2018-05-09T22:37:54.198Z,19.61
2018-05-09T22:40:26.758Z,19.57
2018-05-09T22:42:59.339Z,19.48
2018-05-09T22:45:32.304Z,19.39
2018-05-09T22:48:04.887Z,19.35
2018-05-09T22:50:37.443Z,19.30
2018-05-09T22:53:10.056Z,19.23
2018-05-09T22:55:42.624Z,19.18
2018-05-09T22:58:15.209Z,19.06
2018-05-09T23:00:47.740Z,19.03
2018-05-09T23:03:20.285Z,18.97
2018-05-09T23:05:52.829Z,18.95
2018-05-09T23:08:25.392Z,18.91
2018-05-09T23:10:57.915Z,18.87
2018-05-09T23:13:30.465Z,18.76
2018-05-09T23:16:02.993Z,18.71
2018-05-09T23:18:35.557Z,18.73
2018-05-09T23:21:08.084Z,18.67
2018-05-09T23:23:40.625Z,18.65
2018-05-09T23:26:13.153Z,18.64
2018-05-09T23:28:45.695Z,18.61
2018-05-09T23:31:18.209Z,18.58
2018-05-09T23:33:50.757Z,18.58
2018-05-09T23:36:23.281Z,18.57
2018-05-09T23:38:55.856Z,18.56
2018-05-09T23:41:28.383Z,18.55
2018-05-09T23:44:00.969Z,18.55
2018-05-09T23:46:33.485Z,18.55
2018-05-09T23:51:44.931Z,18.45
2018-05-09T23:54:17.476Z,18.41
2018-05-09T23:56:50.001Z,18.39
2018-05-09T23:59:22.566Z,18.35
